Time;durP1;ratioP1;P1;durP2;ratioP2;P2;SDS_P1;SDS_P2;PMS_P1;PMS_P2;Temp;Humidity;BMP_temperature;BMP_pressure;BME280_temperature;BME280_humidity;BME280_pressure;Samples;Min_cycle;Max_cycle;Signal;HPM_P1;HPM_P2
2020/12/07 00:00:21;;;;;;;37.70;19.73;;;6.60;99.90;;;;;;5073310;28;20240;-71
2020/12/07 00:02:46;;;;;;;42.27;23.20;;;6.60;99.90;;;;;;5073170;28;20198;-70
2020/12/07 00:05:12;;;;;;;36.97;21.60;;;6.70;99.90;;;;;;5073325;28;20425;-71
2020/12/07 00:07:38;;;;;;;37.60;21.30;;;6.60;99.90;;;;;;5073206;28;20185;-71
2020/12/07 00:10:05;;;;;;;38.47;22.57;;;6.60;99.90;;;;;;5073318;28;20181;-69
2020/12/07 00:12:30;;;;;;;36.77;23.33;;;6.60;99.90;;;;;;5073213;28;20541;-71
2020/12/07 00:14:57;;;;;;;31.77;20.80;;;6.60;99.90;;;;;;5073281;28;20435;-71
2020/12/07 00:17:24;;;;;;;38.80;22.27;;;6.60;99.90;;;;;;5073040;28;20548;-71
2020/12/07 00:19:50;;;;;;;39.07;22.00;;;6.60;99.90;;;;;;5073111;28;20435;-71
2020/12/07 00:22:20;;;;;;;38.83;21.60;;;6.60;99.90;;;;;;5072967;28;20431;-70
2020/12/07 00:24:46;;;;;;;41.23;23.63;;;6.60;99.90;;;;;;5073101;28;20463;-71
2020/12/07 00:27:11;;;;;;;38.10;22.40;;;6.60;99.90;;;;;;5073101;28;20440;-71
2020/12/07 00:29:37;;;;;;;42.30;23.13;;;6.60;99.90;;;;;;5073044;28;20198;-71
2020/12/07 00:32:02;;;;;;;36.43;22.27;;;6.60;99.90;;;;;;5073137;28;20184;-71
2020/12/07 00:34:28;;;;;;;43.40;22.37;;;6.60;99.90;;;;;;5072996;28;20240;-71
2020/12/07 00:36:53;;;;;;;44.17;23.60;;;6.60;99.90;;;;;;5073023;28;20709;-71
2020/12/07 00:39:19;;;;;;;40.60;23.00;;;6.60;99.90;;;;;;5072946;28;20643;-71
2020/12/07 00:41:44;;;;;;;37.40;21.53;;;6.60;99.90;;;;;;5072848;28;20174;-71
2020/12/07 00:44:10;;;;;;;36.30;20.70;;;6.60;99.90;;;;;;5073322;28;20204;-71
2020/12/07 00:46:35;;;;;;;36.40;20.70;;;6.50;99.90;;;;;;5076905;28;20599;-70
2020/12/07 00:49:01;;;;;;;31.30;17.80;;;6.60;99.90;;;;;;5076957;28;20188;-70
2020/12/07 00:51:27;;;;;;;34.43;18.50;;;6.50;99.90;;;;;;5076782;28;20181;-70
2020/12/07 00:53:52;;;;;;;28.50;19.50;;;6.50;99.90;;;;;;5077750;28;20233;-71
2020/12/07 00:56:18;;;;;;;31.70;18.10;;;6.50;99.90;;;;;;5076943;28;20264;-71
2020/12/07 00:58:43;;;;;;;35.57;18.33;;;6.50;99.90;;;;;;5076608;28;20315;-71
2020/12/07 01:01:09;;;;;;;28.23;17.13;;;6.50;99.90;;;;;;5076744;28;20590;-70
2020/12/07 01:03:34;;;;;;;32.83;18.77;;;6.50;99.90;;;;;;5076443;28;20742;-71
2020/12/07 01:06:00;;;;;;;30.00;18.40;;;6.50;99.90;;;;;;5076597;28;20162;-71
2020/12/07 01:08:25;;;;;;;27.30;17.00;;;6.50;99.90;;;;;;5076437;28;20300;-71
2020/12/07 01:10:55;;;;;;;29.33;18.07;;;6.50;99.90;;;;;;5076377;28;20177;-71
2020/12/07 01:13:21;;;;;;;28.67;17.73;;;6.50;99.90;;;;;;5076460;28;20182;-71
2020/12/07 01:15:48;;;;;;;25.40;16.53;;;6.50;99.90;;;;;;5076314;28;20413;-71
2020/12/07 01:18:14;;;;;;;28.03;16.33;;;6.50;99.90;;;;;;5076427;28;20447;-71
2020/12/07 01:20:39;;;;;;;25.80;16.27;;;6.40;99.90;;;;;;5076201;28;20427;-71
2020/12/07 01:23:05;;;;;;;27.20;15.80;;;6.50;99.90;;;;;;5075965;28;20582;-72
2020/12/07 01:25:31;;;;;;;24.67;15.27;;;6.50;99.90;;;;;;5076173;28;20265;-73
2020/12/07 01:27:56;;;;;;;27.70;14.63;;;6.40;99.90;;;;;;5076238;28;20269;-72
2020/12/07 01:30:22;;;;;;;25.70;16.30;;;6.40;99.90;;;;;;5076133;28;20171;-72
2020/12/07 01:32:47;;;;;;;19.70;13.20;;;6.40;99.90;;;;;;5076105;28;20181;-72
2020/12/07 01:35:13;;;;;;;25.53;14.70;;;6.40;99.90;;;;;;5076063;28;20707;-72
2020/12/07 01:37:38;;;;;;;26.20;14.23;;;6.40;99.90;;;;;;5075908;28;20577;-72
2020/12/07 01:40:04;;;;;;;27.10;15.87;;;6.40;99.90;;;;;;5075946;28;20204;-72
2020/12/07 01:42:29;;;;;;;26.00;16.57;;;6.40;99.90;;;;;;5075840;28;20181;-71
2020/12/07 01:44:55;;;;;;;29.87;14.83;;;6.40;99.90;;;;;;5075960;28;20195;-72
2020/12/07 01:47:24;;;;;;;24.13;15.30;;;6.40;99.90;;;;;;5075844;28;20265;-72
2020/12/07 01:49:51;;;;;;;26.67;13.33;;;6.40;99.90;;;;;;5075795;28;20188;-71
2020/12/07 01:52:19;;;;;;;26.13;14.30;;;6.30;99.90;;;;;;5075741;28;20449;-72
2020/12/07 01:54:46;;;;;;;26.47;13.70;;;6.30;99.90;;;;;;5075411;28;20427;-72
2020/12/07 01:57:12;;;;;;;20.90;14.07;;;6.40;99.90;;;;;;5075503;28;20485;-71
2020/12/07 01:59:37;;;;;;;25.63;14.30;;;6.50;99.90;;;;;;5075507;28;20421;-72
2020/12/07 02:02:03;;;;;;;19.50;13.10;;;6.50;99.90;;;;;;5075604;28;20604;-72
2020/12/07 02:04:29;;;;;;;23.93;13.77;;;6.40;99.90;;;;;;5075413;28;20263;-71
2020/12/07 02:06:54;;;;;;;20.90;12.80;;;6.30;99.90;;;;;;5075633;28;20177;-72
2020/12/07 02:09:29;;;;;;;30.20;15.50;;;6.30;99.90;;;;;;5075265;28;20186;-72
2020/12/07 02:11:55;;;;;;;20.67;13.30;;;6.30;99.90;;;;;;5075444;28;20180;-72
2020/12/07 02:14:21;;;;;;;21.40;13.90;;;6.30;99.90;;;;;;5075279;28;20427;-70
2020/12/07 02:16:47;;;;;;;21.07;13.93;;;6.30;99.90;;;;;;5075377;28;20851;-70
2020/12/07 02:19:14;;;;;;;22.37;13.80;;;6.30;99.90;;;;;;5075098;28;20460;-71
2020/12/07 02:21:40;;;;;;;20.10;11.87;;;6.40;99.90;;;;;;5075131;28;20435;-71
2020/12/07 02:24:05;;;;;;;18.53;12.40;;;6.30;99.90;;;;;;5074947;28;20492;-71
2020/12/07 02:26:31;;;;;;;19.70;13.07;;;6.30;99.90;;;;;;5075087;28;20445;-71
2020/12/07 02:28:56;;;;;;;18.37;12.57;;;6.30;99.90;;;;;;5075154;28;20181;-71
2020/12/07 02:31:22;;;;;;;17.83;12.40;;;6.40;99.90;;;;;;5074931;28;20171;-71
2020/12/07 02:33:48;;;;;;;16.50;12.17;;;6.40;99.90;;;;;;5075049;28;20264;-72
2020/12/07 02:36:13;;;;;;;14.30;10.23;;;6.50;99.90;;;;;;5074874;28;20657;-72
2020/12/07 02:38:39;;;;;;;18.17;11.43;;;6.50;99.90;;;;;;5074768;28;20184;-72
2020/12/07 02:41:04;;;;;;;18.50;12.33;;;6.50;99.90;;;;;;5074835;28;20182;-72
2020/12/07 02:43:30;;;;;;;17.63;11.37;;;6.50;99.90;;;;;;5074671;28;20240;-72
2020/12/07 02:45:55;;;;;;;18.43;12.07;;;6.50;99.90;;;;;;5074808;28;20177;-70
2020/12/07 02:48:21;;;;;;;18.23;11.67;;;6.50;99.90;;;;;;5074627;28;20186;-71
2020/12/07 02:50:46;;;;;;;19.63;11.73;;;6.50;99.90;;;;;;5074527;28;20205;-71
2020/12/07 02:53:12;;;;;;;16.83;11.30;;;6.50;99.90;;;;;;5074586;28;20177;-71
2020/12/07 02:55:37;;;;;;;15.07;10.90;;;6.50;99.90;;;;;;5074463;28;20180;-71
2020/12/07 02:58:03;;;;;;;18.03;11.70;;;6.50;99.90;;;;;;5074434;28;20181;-71
2020/12/07 03:00:29;;;;;;;18.40;11.13;;;6.50;99.90;;;;;;5074264;28;20185;-71
2020/12/07 03:02:54;;;;;;;17.27;10.97;;;6.50;99.90;;;;;;5074282;28;20202;-72
2020/12/07 03:05:20;;;;;;;16.90;10.63;;;6.50;99.90;;;;;;5074194;28;20188;-72
2020/12/07 03:07:45;;;;;;;12.43;10.40;;;6.50;99.90;;;;;;5073532;28;20179;-71
2020/12/07 03:10:11;;;;;;;17.50;11.67;;;6.50;99.90;;;;;;5074184;28;20174;-72
2020/12/07 03:12:36;;;;;;;17.23;11.47;;;6.50;99.90;;;;;;5074126;28;20181;-71
2020/12/07 03:15:02;;;;;;;15.40;11.23;;;6.50;99.90;;;;;;5074185;28;20174;-70
2020/12/07 03:17:27;;;;;;;17.53;11.10;;;6.50;99.90;;;;;;5073997;28;20187;-70
2020/12/07 03:19:53;;;;;;;13.63;10.37;;;6.50;99.90;;;;;;5074123;28;20204;-71
2020/12/07 03:22:18;;;;;;;17.37;10.00;;;6.50;99.90;;;;;;5073740;28;20218;-70
2020/12/07 03:24:44;;;;;;;14.50;10.70;;;6.50;99.90;;;;;;5073873;28;20561;-71
2020/12/07 03:27:09;;;;;;;16.60;10.50;;;6.60;99.90;;;;;;5073905;28;20173;-71
2020/12/07 03:29:35;;;;;;;17.23;11.33;;;6.60;99.90;;;;;;5073851;28;20178;-71
2020/12/07 03:32:01;;;;;;;17.77;11.73;;;6.60;99.90;;;;;;5073808;28;20234;-71
2020/12/07 03:34:26;;;;;;;17.50;11.10;;;6.60;99.90;;;;;;5073705;28;20536;-71
2020/12/07 03:36:52;;;;;;;20.80;11.77;;;6.60;99.90;;;;;;5073838;28;20180;-71
2020/12/07 03:39:18;;;;;;;14.40;10.30;;;6.60;99.90;;;;;;5073576;28;20550;-71
2020/12/07 03:41:43;;;;;;;17.03;11.70;;;6.70;99.90;;;;;;5073601;28;20175;-71
2020/12/07 03:44:09;;;;;;;15.27;10.87;;;6.60;99.90;;;;;;5073542;28;20262;-71
2020/12/07 03:46:34;;;;;;;14.90;11.33;;;6.60;99.90;;;;;;5073574;28;20174;-71
2020/12/07 03:49:00;;;;;;;20.17;12.80;;;6.70;99.90;;;;;;5073492;28;20181;-73
2020/12/07 03:51:26;;;;;;;17.07;12.20;;;6.70;99.90;;;;;;5073381;28;20261;-73
2020/12/07 03:53:51;;;;;;;17.07;10.80;;;6.70;99.90;;;;;;5073605;28;20208;-72
2020/12/07 03:56:17;;;;;;;15.03;11.13;;;6.70;99.90;;;;;;5073412;28;20174;-72
2020/12/07 03:58:42;;;;;;;18.00;11.20;;;6.60;99.90;;;;;;5073360;28;20190;-73
2020/12/07 04:01:09;;;;;;;15.67;10.83;;;6.60;99.90;;;;;;5073323;28;20210;-73
2020/12/07 04:03:36;;;;;;;15.73;11.23;;;6.60;99.90;;;;;;5073189;28;20316;-72
2020/12/07 04:08:28;;;;;;;15.30;11.10;;;6.60;99.90;;;;;;5073236;28;20512;-72
2020/12/07 04:10:53;;;;;;;16.00;11.00;;;6.60;99.90;;;;;;5073236;28;20178;-73
2020/12/07 04:13:19;;;;;;;17.20;11.20;;;6.60;99.90;;;;;;5073206;28;20174;-72
2020/12/07 04:15:44;;;;;;;15.57;11.20;;;6.60;99.90;;;;;;5073216;28;20526;-73
2020/12/07 04:18:10;;;;;;;17.57;11.30;;;6.70;99.90;;;;;;5072924;28;20169;-72
2020/12/07 04:20:35;;;;;;;14.80;10.67;;;6.70;99.90;;;;;;5073152;28;20188;-72
2020/12/07 04:23:01;;;;;;;16.53;10.87;;;6.70;99.90;;;;;;5072930;28;20322;-72
2020/12/07 04:25:26;;;;;;;15.07;11.20;;;6.70;99.90;;;;;;5073035;28;20180;-72
2020/12/07 04:27:52;;;;;;;13.63;9.80;;;6.60;99.90;;;;;;5073173;28;20256;-72
2020/12/07 04:30:18;;;;;;;17.70;11.03;;;6.70;99.90;;;;;;5073089;28;20593;-72
2020/12/07 06:31:57;;;;;;;25.33;18.70;;;6.40;99.90;;;;;;5276779;23;20562;-78
2020/12/07 06:34:38;;;;;;;28.53;19.53;;;6.40;99.90;;;;;;4937718;29;20438;-80
2020/12/07 06:37:15;;;;;;;31.40;20.57;;;6.40;99.90;;;;;;4937700;29;20554;-80
2020/12/07 06:39:42;;;;;;;25.23;17.47;;;6.40;99.90;;;;;;4937694;29;20500;-80
2020/12/07 06:42:08;;;;;;;27.17;19.47;;;6.30;99.90;;;;;;4937828;29;20438;-80
2020/12/07 06:44:34;;;;;;;27.07;19.70;;;6.40;99.90;;;;;;4937453;29;20897;-80
2020/12/07 06:47:09;;;;;;;25.20;18.23;;;6.30;99.90;;;;;;4937581;29;20478;-80
2020/12/07 06:49:40;;;;;;;26.23;18.73;;;6.20;99.90;;;;;;4937534;29;20232;-82
2020/12/07 06:52:11;;;;;;;26.87;19.07;;;6.20;99.90;;;;;;4937560;29;20423;-76
2020/12/07 06:57:27;;;;;;;23.27;17.17;;;6.30;99.90;;;;;;4937627;29;20486;-85
2020/12/07 06:59:59;;;;;;;27.25;19.88;;;6.20;99.90;;;;;;4936633;29;20516;-86
2020/12/07 07:02:25;;;;;;;25.87;18.40;;;6.30;99.90;;;;;;4937322;29;20177;-85
2020/12/07 07:04:53;;;;;;;25.80;18.23;;;6.40;99.90;;;;;;4937214;29;20841;-83
2020/12/07 07:07:23;;;;;;;24.77;17.37;;;6.40;99.90;;;;;;4937062;29;20433;-84
2020/12/07 07:09:49;;;;;;;22.30;15.23;;;6.40;99.90;;;;;;4937174;29;20460;-85
2020/12/07 07:12:15;;;;;;;26.10;17.60;;;6.40;99.90;;;;;;4937056;29;20462;-83
2020/12/07 07:17:06;;;;;;;23.80;17.80;;;6.40;99.90;;;;;;4946181;23;20993;-83
2020/12/07 07:19:31;;;;;;;23.23;15.47;;;6.30;99.90;;;;;;4936944;29;20229;-83
2020/12/07 07:21:59;;;;;;;23.30;16.07;;;6.30;99.90;;;;;;4936935;29;20175;-83
2020/12/07 07:24:33;;;;;;;21.37;15.17;;;6.30;99.90;;;;;;4936826;29;20215;-85
2020/12/07 07:27:54;;;;;;;25.13;17.40;;;6.30;99.90;;;;;;4937034;29;20430;-88
2020/12/07 07:29:46;;;;;;;23.00;15.63;;;6.40;99.90;;;;;;4936772;29;20892;-89
2020/12/07 07:32:13;;;;;;;22.80;17.17;;;6.30;99.90;;;;;;4936816;29;20418;-76
2020/12/07 07:34:46;;;;;;;21.40;16.60;;;6.30;99.90;;;;;;4936651;29;20426;-86
2020/12/07 07:37:12;;;;;;;16.97;14.00;;;6.30;99.90;;;;;;4936744;29;20894;-86
2020/12/07 07:39:38;;;;;;;22.50;15.87;;;6.30;99.90;;;;;;4936807;29;20454;-85
2020/12/07 07:42:13;;;;;;;21.00;15.03;;;6.20;99.90;;;;;;4936558;29;20804;-83
2020/12/07 07:44:41;;;;;;;18.03;13.20;;;6.20;99.90;;;;;;4936464;29;20221;-82
2020/12/07 07:47:13;;;;;;;24.90;16.87;;;6.30;99.90;;;;;;4936526;29;20781;-83
2020/12/07 08:17:59;;;;;;;21.27;14.50;;;6.20;99.90;;;;;;4914878;29;20455;-85
2020/12/07 08:20:28;;;;;;;22.67;16.47;;;6.20;99.90;;;;;;4915003;29;20440;-85
2020/12/07 08:23:03;;;;;;;20.70;15.20;;;6.20;99.90;;;;;;4925193;29;20482;-85
2020/12/07 08:25:50;;;;;;;22.47;15.33;;;6.20;99.90;;;;;;4936127;29;20524;-81
2020/12/07 08:28:22;;;;;;;22.70;15.33;;;6.20;99.90;;;;;;4935878;29;20418;-81
2020/12/07 08:31:05;;;;;;;22.33;14.57;;;6.30;99.90;;;;;;4936033;29;20445;-82
2020/12/07 08:33:32;;;;;;;22.10;14.53;;;6.20;99.90;;;;;;4935841;29;20520;-82
2020/12/07 08:36:00;;;;;;;18.57;13.90;;;6.20;99.90;;;;;;4936002;29;20781;-82
2020/12/07 08:38:29;;;;;;;21.57;15.53;;;6.20;99.90;;;;;;4935951;29;20445;-82
2020/12/07 08:41:15;;;;;;;26.60;15.20;;;6.10;99.90;;;;;;4935962;29;20422;-81
2020/12/07 08:43:46;;;;;;;23.77;17.03;;;6.20;99.90;;;;;;4936001;29;20578;-82
2020/12/07 08:46:19;;;;;;;24.03;15.50;;;6.10;99.90;;;;;;4935734;29;20437;-81
2020/12/07 08:48:46;;;;;;;19.73;13.90;;;6.10;99.90;;;;;;4935902;29;20413;-81
2020/12/07 08:51:12;;;;;;;20.00;14.60;;;6.10;99.90;;;;;;4936313;29;20476;-81
2020/12/07 08:53:38;;;;;;;20.30;12.67;;;6.10;99.90;;;;;;4935919;29;20462;-81
2020/12/07 08:56:08;;;;;;;20.53;14.80;;;6.20;99.90;;;;;;4935839;29;20229;-81
2020/12/07 08:58:34;;;;;;;18.30;12.67;;;6.10;99.90;;;;;;4935651;29;20430;-81
2020/12/07 09:01:02;;;;;;;20.30;14.43;;;6.10;99.90;;;;;;4935842;29;20437;-81
2020/12/07 09:03:28;;;;;;;17.40;12.23;;;6.10;99.90;;;;;;4935627;29;20269;-82
2020/12/07 09:05:53;;;;;;;13.83;10.83;;;6.10;99.90;;;;;;4936271;29;20438;-82
2020/12/07 09:08:19;;;;;;;17.20;12.53;;;6.10;99.90;;;;;;4939366;29;20318;-81
2020/12/07 09:10:44;;;;;;;20.27;11.77;;;6.10;99.90;;;;;;4939433;29;20535;-81
2020/12/07 09:13:10;;;;;;;16.67;12.03;;;6.10;99.90;;;;;;4939326;29;20179;-81
2020/12/07 09:15:35;;;;;;;16.47;11.93;;;6.20;99.90;;;;;;4939046;29;20230;-82
2020/12/07 09:18:01;;;;;;;15.77;10.67;;;6.10;99.90;;;;;;4939375;29;20182;-81
2020/12/07 09:20:27;;;;;;;16.53;11.43;;;6.00;99.90;;;;;;4939158;29;20274;-81
2020/12/07 09:22:52;;;;;;;15.87;11.70;;;6.00;99.90;;;;;;4938958;29;20220;-81
2020/12/07 09:25:18;;;;;;;16.20;12.00;;;6.00;99.90;;;;;;4939030;29;20190;-81
2020/12/07 09:27:43;;;;;;;14.37;9.97;;;6.00;99.90;;;;;;4939033;29;20181;-81
2020/12/07 09:30:09;;;;;;;15.40;10.53;;;6.10;99.90;;;;;;4938949;29;20288;-81
2020/12/07 09:32:35;;;;;;;15.60;11.20;;;6.10;99.90;;;;;;4938889;29;20197;-81
2020/12/07 09:35:01;;;;;;;15.80;10.70;;;6.10;99.90;;;;;;4938959;29;20193;-81
2020/12/07 09:37:26;;;;;;;16.17;10.30;;;6.10;99.90;;;;;;4938945;29;20246;-81
2020/12/07 09:39:52;;;;;;;13.50;9.60;;;6.10;99.90;;;;;;4938781;29;20445;-82
2020/12/07 09:42:17;;;;;;;15.37;10.00;;;6.20;99.90;;;;;;4938774;29;20190;-81
2020/12/07 09:44:43;;;;;;;15.17;11.17;;;6.10;99.90;;;;;;4938750;29;20712;-81
2020/12/07 09:47:08;;;;;;;21.13;12.60;;;6.00;99.90;;;;;;4938701;29;20179;-81
2020/12/07 09:49:34;;;;;;;15.10;11.20;;;6.00;99.90;;;;;;4938610;29;20627;-81
2020/12/07 09:51:59;;;;;;;16.30;12.27;;;6.00;99.90;;;;;;4938657;29;20580;-81
2020/12/07 09:54:25;;;;;;;17.30;11.90;;;6.00;99.90;;;;;;4938511;29;20515;-81
2020/12/07 09:56:51;;;;;;;17.90;10.90;;;6.10;99.90;;;;;;4938532;29;20182;-81
2020/12/07 09:59:16;;;;;;;16.63;11.73;;;6.10;99.90;;;;;;4938363;29;20242;-81
2020/12/07 10:01:42;;;;;;;20.97;11.27;;;6.00;99.90;;;;;;4938185;29;20192;-81
2020/12/07 10:04:08;;;;;;;18.87;12.57;;;6.00;99.90;;;;;;4938249;29;20226;-81
2020/12/07 10:06:33;;;;;;;17.77;12.00;;;6.00;99.90;;;;;;4938191;29;20435;-81
2020/12/07 10:08:59;;;;;;;17.13;12.57;;;6.10;99.90;;;;;;4938304;29;20214;-81
2020/12/07 10:11:24;;;;;;;15.43;11.17;;;6.10;99.90;;;;;;4938206;29;20177;-85
2020/12/07 10:13:50;;;;;;;28.83;12.73;;;6.00;99.90;;;;;;4938239;29;20183;-81
2020/12/07 10:16:15;;;;;;;17.17;12.17;;;6.10;99.90;;;;;;4937646;29;20263;-81
2020/12/07 10:18:41;;;;;;;21.70;14.43;;;6.00;99.90;;;;;;4938097;29;20671;-81
2020/12/07 10:21:07;;;;;;;17.63;13.03;;;6.00;99.90;;;;;;4936939;29;20185;-80
2020/12/07 10:23:33;;;;;;;19.10;11.97;;;6.00;99.90;;;;;;4937852;29;20225;-80
2020/12/07 10:25:58;;;;;;;21.10;12.80;;;6.00;99.90;;;;;;4937988;29;20553;-81
2020/12/07 10:28:24;;;;;;;18.87;12.20;;;6.00;99.90;;;;;;4937914;29;20186;-81
2020/12/07 10:30:49;;;;;;;18.27;12.90;;;5.90;99.90;;;;;;4938009;29;20179;-81
2020/12/07 10:33:15;;;;;;;20.53;11.80;;;6.00;99.90;;;;;;4937861;29;20678;-87
2020/12/07 10:35:41;;;;;;;21.03;11.87;;;6.00;99.90;;;;;;4937840;29;20214;-84
2020/12/07 10:38:06;;;;;;;16.60;11.93;;;6.00;99.90;;;;;;4937741;29;20190;-84
2020/12/07 10:40:32;;;;;;;18.20;11.80;;;5.80;99.90;;;;;;4937660;29;20522;-84
2020/12/07 10:42:58;;;;;;;17.57;11.70;;;5.80;99.90;;;;;;4937654;29;20234;-84
2020/12/07 10:45:23;;;;;;;17.60;10.97;;;5.80;99.90;;;;;;4937639;29;20196;-83
2020/12/07 10:47:51;;;;;;;17.37;11.27;;;5.70;99.90;;;;;;4937604;29;20429;-82
2020/12/07 10:50:17;;;;;;;17.40;12.27;;;5.70;99.90;;;;;;4937513;29;20654;-81
2020/12/07 10:52:43;;;;;;;20.63;12.03;;;5.80;99.90;;;;;;4937530;29;20434;-81
2020/12/07 10:55:08;;;;;;;17.40;12.87;;;5.90;99.90;;;;;;4937364;29;20846;-82
2020/12/07 10:57:34;;;;;;;17.90;13.07;;;5.90;99.90;;;;;;4937533;29;20271;-81
2020/12/07 10:59:59;;;;;;;18.40;11.43;;;5.90;99.90;;;;;;4937326;29;20652;-81
2020/12/07 11:02:27;;;;;;;19.63;12.60;;;5.80;99.90;;;;;;4937002;29;20824;-85
2020/12/07 11:04:52;;;;;;;17.50;12.10;;;5.80;99.90;;;;;;4937168;29;20216;-84
2020/12/07 11:07:19;;;;;;;17.30;11.40;;;5.90;99.90;;;;;;4937119;29;20580;-85
2020/12/07 11:09:44;;;;;;;19.70;12.50;;;5.90;99.90;;;;;;4937238;29;20171;-83
2020/12/07 11:12:22;;;;;;;17.70;12.33;;;6.00;99.90;;;;;;4937082;29;20430;-83
2020/12/07 11:14:47;;;;;;;18.10;11.30;;;5.90;99.90;;;;;;4936985;29;20186;-83
2020/12/07 11:17:13;;;;;;;19.63;12.30;;;5.90;99.90;;;;;;4936999;29;20428;-89
2020/12/07 11:19:42;;;;;;;17.43;11.80;;;5.90;99.90;;;;;;4936971;29;20216;-89
2020/12/07 11:22:08;;;;;;;17.27;13.17;;;5.90;99.90;;;;;;4936998;29;20623;-89
2020/12/07 11:24:34;;;;;;;18.97;12.90;;;5.90;99.90;;;;;;4936825;29;20488;-80
2020/12/07 11:26:59;;;;;;;19.43;13.50;;;5.90;99.90;;;;;;4936818;29;20186;-78
2020/12/07 11:29:25;;;;;;;17.80;11.90;;;6.00;99.90;;;;;;4936167;29;20184;-79
2020/12/07 11:31:50;;;;;;;20.37;13.83;;;6.00;99.90;;;;;;4936690;29;20189;-78
2020/12/07 11:34:22;;;;;;;26.10;14.10;;;6.10;99.90;;;;;;4936678;29;20190;-79
2020/12/07 11:36:51;;;;;;;19.37;13.87;;;6.10;99.90;;;;;;4936799;29;20186;-78
2020/12/07 11:44:34;;;;;;;17.07;12.90;;;6.30;99.90;;;;;;4936454;29;20540;-81
2020/12/07 11:47:06;;;;;;;16.40;12.13;;;6.30;99.90;;;;;;4936639;29;20794;-81
2020/12/07 11:49:31;;;;;;;16.17;12.30;;;6.20;99.90;;;;;;4936514;29;20441;-81
2020/12/07 11:52:04;;;;;;;13.60;10.27;;;6.20;99.90;;;;;;4936494;29;20919;-80
2020/12/07 11:54:29;;;;;;;12.10;9.67;;;6.20;99.90;;;;;;4936322;29;20246;-81
2020/12/07 11:56:55;;;;;;;18.63;10.60;;;6.20;99.90;;;;;;4936357;29;20419;-81
2020/12/07 11:59:21;;;;;;;15.27;10.30;;;6.20;99.90;;;;;;4936249;29;20225;-84
2020/12/07 12:01:47;;;;;;;13.63;9.70;;;6.20;99.90;;;;;;4936405;29;20189;-83
2020/12/07 12:04:12;;;;;;;12.90;9.90;;;6.20;99.90;;;;;;4936183;29;20489;-78
2020/12/07 12:06:38;;;;;;;11.97;8.13;;;6.20;99.90;;;;;;4936128;29;20333;-78
2020/12/07 12:09:12;;;;;;;12.10;8.93;;;6.30;99.90;;;;;;4936102;29;20261;-78
2020/12/07 12:11:39;;;;;;;13.33;9.20;;;6.30;99.90;;;;;;4936090;29;20425;-77
2020/12/07 12:14:07;;;;;;;13.07;8.53;;;6.40;99.90;;;;;;4936196;29;20791;-78
2020/12/07 12:16:33;;;;;;;11.87;7.67;;;6.40;99.90;;;;;;4935882;29;20868;-80
2020/12/07 12:18:59;;;;;;;12.20;8.03;;;6.40;99.90;;;;;;4936060;29;20431;-79
2020/12/07 12:21:27;;;;;;;9.33;7.40;;;6.30;99.90;;;;;;4935988;29;20521;-78
2020/12/07 12:23:53;;;;;;;13.50;8.63;;;6.30;99.90;;;;;;4936006;29;20471;-78
2020/12/07 12:26:20;;;;;;;11.30;7.10;;;6.40;99.90;;;;;;4935989;29;20427;-79
2020/12/07 12:28:46;;;;;;;12.60;8.67;;;6.40;99.90;;;;;;4939250;29;20284;-78
2020/12/07 12:31:12;;;;;;;11.93;6.80;;;6.40;99.90;;;;;;4935930;29;20948;-86
2020/12/07 12:33:38;;;;;;;11.73;7.63;;;6.40;99.90;;;;;;4936106;29;20198;-83
2020/12/07 12:36:05;;;;;;;10.60;7.63;;;6.40;99.90;;;;;;4935967;29;21007;-83
2020/12/07 12:38:31;;;;;;;12.70;7.37;;;6.40;99.90;;;;;;4935978;29;20527;-82
2020/12/07 12:40:56;;;;;;;9.57;6.90;;;6.40;99.90;;;;;;4939435;29;20474;-82
2020/12/07 12:43:22;;;;;;;11.60;8.63;;;6.30;99.90;;;;;;4939834;29;20220;-83
2020/12/07 12:45:47;;;;;;;12.87;7.10;;;6.20;99.90;;;;;;4939982;29;20181;-75
2020/12/07 12:48:13;;;;;;;9.70;6.60;;;6.20;99.90;;;;;;4939818;29;20534;-78
2020/12/07 12:50:38;;;;;;;11.67;7.53;;;6.40;99.90;;;;;;4939967;29;20270;-78
2020/12/07 12:53:04;;;;;;;9.90;6.47;;;6.30;99.90;;;;;;4939829;29;20183;-78
2020/12/07 12:55:29;;;;;;;8.97;6.63;;;6.30;99.90;;;;;;4939657;29;20540;-80
2020/12/07 12:57:55;;;;;;;15.20;6.77;;;6.30;99.90;;;;;;4939616;29;20206;-80
2020/12/07 13:00:21;;;;;;;12.03;6.43;;;6.40;99.90;;;;;;4939585;29;20393;-81
2020/12/07 13:02:47;;;;;;;11.67;7.00;;;6.40;99.90;;;;;;4939612;29;20610;-80
2020/12/07 13:05:13;;;;;;;15.53;6.57;;;6.30;99.90;;;;;;4939374;29;20449;-78
2020/12/07 13:07:39;;;;;;;8.97;6.67;;;6.30;99.90;;;;;;4939450;29;20492;-77
2020/12/07 13:10:05;;;;;;;9.27;6.23;;;6.30;99.90;;;;;;4939437;29;20243;-82
2020/12/07 13:12:30;;;;;;;9.73;6.10;;;6.40;99.90;;;;;;4939249;29;20933;-80
2020/12/07 13:14:56;;;;;;;11.47;6.80;;;6.50;99.90;;;;;;4939182;29;20460;-80
2020/12/07 13:17:24;;;;;;;11.73;6.20;;;6.50;99.90;;;;;;4939286;29;20186;-80
2020/12/07 13:19:50;;;;;;;7.50;5.67;;;6.60;99.90;;;;;;4939311;29;20189;-80
2020/12/07 13:22:34;;;;;;;7.53;5.77;;;6.60;99.90;;;;;;4939002;29;20434;-80
2020/12/07 13:25:09;;;;;;;6.10;5.20;;;6.60;99.90;;;;;;4939148;29;20529;-80
2020/12/07 13:30:00;;;;;;;9.67;6.73;;;6.50;99.90;;;;;;4939068;29;20798;-80
2020/12/07 13:32:26;;;;;;;9.90;6.93;;;6.50;99.90;;;;;;4938902;29;20442;-80
2020/12/07 13:37:08;;;;;;;12.83;6.93;;;6.50;99.90;;;;;;5090864;27;20574;-79
2020/12/07 13:39:34;;;;;;;10.20;6.47;;;6.50;99.90;;;;;;5090621;28;20914;-79
2020/12/07 13:41:59;;;;;;;9.40;5.97;;;6.50;99.90;;;;;;5090784;28;20185;-80
2020/12/07 13:44:25;;;;;;;9.33;6.10;;;6.70;99.90;;;;;;5090620;28;20178;-80
2020/12/07 13:46:55;;;;;;;10.17;7.00;;;6.70;99.90;;;;;;5090758;28;20223;-81
2020/12/07 13:49:21;;;;;;;11.07;6.10;;;6.60;99.90;;;;;;5090487;28;20697;-80
2020/12/07 13:51:47;;;;;;;9.77;6.77;;;6.60;99.90;;;;;;5090293;28;20427;-80
2020/12/07 13:54:12;;;;;;;8.87;6.47;;;6.60;99.90;;;;;;5090376;28;20166;-79
2020/12/07 13:56:42;;;;;;;10.30;7.10;;;6.60;99.90;;;;;;5090469;28;20209;-79
2020/12/07 13:59:09;;;;;;;10.47;7.90;;;6.60;99.90;;;;;;5091214;28;20184;-79
2020/12/07 14:01:38;;;;;;;10.17;7.47;;;6.60;99.90;;;;;;5090382;28;20485;-79
2020/12/07 14:06:49;;;;;;;11.27;7.67;;;6.60;99.90;;;;;;5090334;28;20483;-79
2020/12/07 14:09:14;;;;;;;12.03;6.87;;;6.60;99.90;;;;;;5090096;28;20914;-79
2020/12/07 14:11:40;;;;;;;11.97;7.97;;;6.60;99.90;;;;;;5090193;28;20432;-79
2020/12/07 14:14:05;;;;;;;8.40;7.20;;;6.70;99.90;;;;;;5090125;28;20170;-79
2020/12/07 14:16:35;;;;;;;19.73;8.20;;;6.70;99.90;;;;;;5089893;28;20315;-79
2020/12/07 14:19:09;;;;;;;9.83;6.57;;;6.70;99.90;;;;;;5089966;28;20182;-80
2020/12/07 14:24:15;;;;;;;9.43;8.07;;;6.70;99.90;;;;;;5090019;28;20430;-80
2020/12/07 14:26:59;;;;;;;10.37;7.43;;;6.80;99.90;;;;;;5089952;28;20432;-80
2020/12/07 14:29:56;;;;;;;10.27;8.43;;;6.80;99.90;;;;;;5089765;28;20427;-80
2020/12/07 14:40:22;;;;;;;10.47;7.23;;;6.90;99.90;;;;;;5089860;28;20418;-80
2020/12/07 14:42:48;;;;;;;14.90;8.40;;;7.00;99.90;;;;;;5089667;28;20463;-80
2020/12/07 14:45:20;;;;;;;10.60;8.37;;;7.00;99.90;;;;;;5089470;28;20424;-79
2020/12/07 14:47:49;;;;;;;8.80;6.83;;;7.00;99.90;;;;;;5080186;28;20902;-80
2020/12/07 14:50:22;;;;;;;12.27;8.73;;;6.90;99.90;;;;;;5075844;28;20455;-80
2020/12/07 14:52:49;;;;;;;13.80;9.33;;;7.00;99.90;;;;;;5075849;28;20412;-78
2020/12/07 15:05:32;;;;;;;12.07;8.43;;;6.90;99.90;;;;;;5075604;28;20439;-77
2020/12/07 15:15:23;;;;;;;8.20;7.40;;;7.10;99.90;;;;;;5075384;28;20212;-77
2020/12/07 15:17:49;;;;;;;9.50;6.73;;;7.10;99.90;;;;;;5075542;28;20429;-78
2020/12/07 15:20:14;;;;;;;10.13;6.70;;;7.00;99.90;;;;;;5075292;28;20174;-78
2020/12/07 15:22:40;;;;;;;10.27;6.90;;;7.00;99.90;;;;;;5075307;28;20220;-78
2020/12/07 15:25:05;;;;;;;8.17;7.30;;;7.00;99.90;;;;;;5075319;28;20178;-77
2020/12/07 15:27:31;;;;;;;7.27;6.07;;;7.00;99.90;;;;;;5075175;28;20178;-78
2020/12/07 15:29:56;;;;;;;9.20;6.70;;;7.00;99.90;;;;;;5075160;28;20170;-78
2020/12/07 15:32:23;;;;;;;8.60;6.63;;;7.00;99.90;;;;;;5075179;28;20166;-78
2020/12/07 15:34:48;;;;;;;7.93;6.40;;;7.00;99.90;;;;;;5074884;28;20674;-77
2020/12/07 15:37:14;;;;;;;7.13;6.37;;;7.00;99.90;;;;;;5075020;28;20515;-78
2020/12/07 15:39:39;;;;;;;6.60;6.00;;;7.00;99.90;;;;;;5074952;28;20212;-77
2020/12/07 15:42:05;;;;;;;7.93;5.77;;;7.00;99.90;;;;;;5075002;28;20349;-78
2020/12/07 15:44:30;;;;;;;8.23;6.10;;;7.10;99.90;;;;;;5074827;28;20201;-82
2020/12/07 15:46:56;;;;;;;9.40;6.17;;;7.10;99.90;;;;;;5074384;28;20759;-78
2020/12/07 15:49:22;;;;;;;9.17;7.30;;;7.10;99.90;;;;;;5073834;28;20536;-82
2020/12/07 15:51:51;;;;;;;8.10;6.50;;;7.00;99.90;;;;;;5073672;28;20266;-80
2020/12/07 15:54:17;;;;;;;9.77;7.40;;;6.90;99.90;;;;;;5073496;28;20183;-87